sensor_id;sensor_type;location;lat;lon;timestamp;pressure;altitude;pressure_sealevel;temperature;humidity
54546;BME280;40444;45.184;9.850;2022-07-23T00:00:37;100729.06;;;28.37;63.64
54546;BME280;40444;45.184;9.850;2022-07-23T00:03:06;100722.84;;;28.30;63.94
54546;BME280;40444;45.184;9.850;2022-07-23T00:05:35;100715.50;;;28.19;64.38
54546;BME280;40444;45.184;9.850;2022-07-23T00:08:06;100725.44;;;28.20;64.28
54546;BME280;40444;45.184;9.850;2022-07-23T00:10:41;100725.03;;;28.11;64.02
54546;BME280;40444;45.184;9.850;2022-07-23T00:13:10;100721.94;;;28.08;63.47
54546;BME280;40444;45.184;9.850;2022-07-23T00:15:38;100723.09;;;28.12;63.14
54546;BME280;40444;45.184;9.850;2022-07-23T00:18:07;100726.69;;;28.12;63.60
54546;BME280;40444;45.184;9.850;2022-07-23T00:20:35;100723.09;;;28.12;63.28
54546;BME280;40444;45.184;9.850;2022-07-23T00:23:04;100726.94;;;28.11;64.05
54546;BME280;40444;45.184;9.850;2022-07-23T00:25:32;100738.22;;;28.09;63.88
54546;BME280;40444;45.184;9.850;2022-07-23T00:28:02;100741.47;;;28.06;64.24
54546;BME280;40444;45.184;9.850;2022-07-23T00:30:31;100739.97;;;27.99;64.51
54546;BME280;40444;45.184;9.850;2022-07-23T00:33:03;100750.16;;;27.98;64.74
54546;BME280;40444;45.184;9.850;2022-07-23T00:35:37;100736.56;;;27.91;64.90
54546;BME280;40444;45.184;9.850;2022-07-23T00:38:09;100753.81;;;27.87;65.36
54546;BME280;40444;45.184;9.850;2022-07-23T00:40:38;100741.84;;;27.81;65.52
54546;BME280;40444;45.184;9.850;2022-07-23T00:43:08;100741.78;;;27.76;65.57
54546;BME280;40444;45.184;9.850;2022-07-23T00:45:36;100736.97;;;27.71;66.43
54546;BME280;40444;45.184;9.850;2022-07-23T00:48:07;100728.97;;;27.70;66.57
54546;BME280;40444;45.184;9.850;2022-07-23T00:50:36;100731.97;;;27.68;66.17
54546;BME280;40444;45.184;9.850;2022-07-23T00:53:05;100722.03;;;27.67;65.97
54546;BME280;40444;45.184;9.850;2022-07-23T00:55:34;100725.88;;;27.66;65.85
54546;BME280;40444;45.184;9.850;2022-07-23T00:58:02;100722.03;;;27.67;66.21
54546;BME280;40444;45.184;9.850;2022-07-23T01:00:31;100710.72;;;27.64;65.93
54546;BME280;40444;45.184;9.850;2022-07-23T01:03:00;100719.94;;;27.58;65.77
54546;BME280;40444;45.184;9.850;2022-07-23T01:05:28;100712.16;;;27.55;65.94
54546;BME280;40444;45.184;9.850;2022-07-23T01:07:57;100708.41;;;27.44;66.58
54546;BME280;40444;45.184;9.850;2022-07-23T01:10:26;100708.88;;;27.41;66.69
54546;BME280;40444;45.184;9.850;2022-07-23T01:13:06;100699.69;;;27.35;66.77
54546;BME280;40444;45.184;9.850;2022-07-23T01:15:37;100702.09;;;27.32;66.58
54546;BME280;40444;45.184;9.850;2022-07-23T01:18:07;100696.75;;;27.25;67.14
54546;BME280;40444;45.184;9.850;2022-07-23T01:20:37;100695.47;;;27.16;67.89
54546;BME280;40444;45.184;9.850;2022-07-23T01:23:08;100694.88;;;27.14;68.05
54546;BME280;40444;45.184;9.850;2022-07-23T01:25:52;100706.38;;;27.11;68.16
54546;BME280;40444;45.184;9.850;2022-07-23T01:28:23;100712.81;;;27.05;68.26
54546;BME280;40444;45.184;9.850;2022-07-23T01:30:52;100715.09;;;26.96;68.14
54546;BME280;40444;45.184;9.850;2022-07-23T01:33:20;100725.16;;;26.90;68.62
54546;BME280;40444;45.184;9.850;2022-07-23T01:35:49;100723.16;;;26.86;68.26
54546;BME280;40444;45.184;9.850;2022-07-23T01:38:22;100725.53;;;26.82;68.26
54546;BME280;40444;45.184;9.850;2022-07-23T01:40:51;100727.94;;;26.79;68.02
54546;BME280;40444;45.184;9.850;2022-07-23T01:43:27;100734.75;;;26.76;67.52
54546;BME280;40444;45.184;9.850;2022-07-23T01:45:56;100728.66;;;26.74;67.74
54546;BME280;40444;45.184;9.850;2022-07-23T01:48:31;100739.91;;;26.73;67.73
54546;BME280;40444;45.184;9.850;2022-07-23T01:51:18;100740.25;;;26.64;67.23
54546;BME280;40444;45.184;9.850;2022-07-23T01:53:56;100739.69;;;26.62;67.23
54546;BME280;40444;45.184;9.850;2022-07-23T01:56:25;100740.41;;;26.58;66.85
54546;BME280;40444;45.184;9.850;2022-07-23T01:58:54;100742.31;;;26.57;67.00
54546;BME280;40444;45.184;9.850;2022-07-23T02:01:23;100738.00;;;26.61;66.41
54546;BME280;40444;45.184;9.850;2022-07-23T02:03:53;100741.94;;;26.54;66.72
54546;BME280;40444;45.184;9.850;2022-07-23T02:06:21;100740.88;;;26.55;66.40
54546;BME280;40444;45.184;9.850;2022-07-23T02:08:50;100748.53;;;26.53;66.67
54546;BME280;40444;45.184;9.850;2022-07-23T02:11:21;100750.44;;;26.52;66.26
54546;BME280;40444;45.184;9.850;2022-07-23T02:13:50;100754.50;;;26.50;66.08
54546;BME280;40444;45.184;9.850;2022-07-23T02:16:21;100749.47;;;26.46;65.77
54546;BME280;40444;45.184;9.850;2022-07-23T02:18:50;100753.53;;;26.44;65.85
54546;BME280;40444;45.184;9.850;2022-07-23T02:21:19;100751.81;;;26.43;65.42
54546;BME280;40444;45.184;9.850;2022-07-23T02:23:49;100759.88;;;26.44;65.35
54546;BME280;40444;45.184;9.850;2022-07-23T02:26:18;100758.38;;;26.42;64.91
54546;BME280;40444;45.184;9.850;2022-07-23T02:28:50;100765.22;;;26.39;64.52
54546;BME280;40444;45.184;9.850;2022-07-23T02:31:22;100766.25;;;26.38;64.48
54546;BME280;40444;45.184;9.850;2022-07-23T02:33:50;100773.34;;;26.34;64.15
54546;BME280;40444;45.184;9.850;2022-07-23T02:36:19;100771.06;;;26.31;64.15
54546;BME280;40444;45.184;9.850;2022-07-23T02:38:48;100774.88;;;26.30;64.19
54546;BME280;40444;45.184;9.850;2022-07-23T02:41:17;100775.59;;;26.26;64.68
54546;BME280;40444;45.184;9.850;2022-07-23T02:43:45;100768.91;;;26.21;65.01
54546;BME280;40444;45.184;9.850;2022-07-23T02:46:15;100769.00;;;26.15;65.14
54546;BME280;40444;45.184;9.850;2022-07-23T02:48:44;100765.03;;;26.11;65.23
54546;BME280;40444;45.184;9.850;2022-07-23T02:51:14;100766.94;;;26.10;65.05
54546;BME280;40444;45.184;9.850;2022-07-23T02:53:50;100773.16;;;26.06;65.59
54546;BME280;40444;45.184;9.850;2022-07-23T02:56:20;100776.22;;;25.98;65.45
54546;BME280;40444;45.184;9.850;2022-07-23T02:58:49;100775.41;;;25.97;65.19
54546;BME280;40444;45.184;9.850;2022-07-23T03:01:18;100771.22;;;25.94;65.50
54546;BME280;40444;45.184;9.850;2022-07-23T03:03:47;100767.28;;;25.90;66.29
54546;BME280;40444;45.184;9.850;2022-07-23T03:06:17;100771.44;;;25.81;66.91
54546;BME280;40444;45.184;9.850;2022-07-23T03:08:45;100772.56;;;25.74;67.19
54546;BME280;40444;45.184;9.850;2022-07-23T03:11:14;100773.72;;;25.66;67.38
54546;BME280;40444;45.184;9.850;2022-07-23T03:13:44;100774.78;;;25.65;67.53
54546;BME280;40444;45.184;9.850;2022-07-23T03:16:12;100783.72;;;25.60;67.07
54546;BME280;40444;45.184;9.850;2022-07-23T03:18:41;100790.16;;;25.54;67.57
54546;BME280;40444;45.184;9.850;2022-07-23T03:21:10;100793.78;;;25.48;67.90
54546;BME280;40444;45.184;9.850;2022-07-23T03:23:38;100791.88;;;25.49;67.50
54546;BME280;40444;45.184;9.850;2022-07-23T03:26:07;100784.28;;;25.51;67.49
54546;BME280;40444;45.184;9.850;2022-07-23T03:28:35;100781.28;;;25.52;67.30
54546;BME280;40444;45.184;9.850;2022-07-23T03:31:06;100792.88;;;25.54;67.33
54546;BME280;40444;45.184;9.850;2022-07-23T03:33:40;100794.31;;;25.57;67.34
54546;BME280;40444;45.184;9.850;2022-07-23T03:36:09;100794.78;;;25.54;67.48
54546;BME280;40444;45.184;9.850;2022-07-23T03:38:43;100791.44;;;25.52;67.25
54546;BME280;40444;45.184;9.850;2022-07-23T03:41:11;100791.06;;;25.48;67.03
54546;BME280;40444;45.184;9.850;2022-07-23T03:43:40;100789.84;;;25.44;67.26
54546;BME280;40444;45.184;9.850;2022-07-23T03:46:11;100796.50;;;25.36;67.29
54546;BME280;40444;45.184;9.850;2022-07-23T03:48:40;100792.75;;;25.31;68.02
54546;BME280;40444;45.184;9.850;2022-07-23T03:51:08;100791.53;;;25.27;68.25
54546;BME280;40444;45.184;9.850;2022-07-23T03:53:38;100800.63;;;25.27;68.15
54546;BME280;40444;45.184;9.850;2022-07-23T03:56:06;100795.34;;;25.26;68.33
54546;BME280;40444;45.184;9.850;2022-07-23T03:58:35;100797.25;;;25.25;68.33
54546;BME280;40444;45.184;9.850;2022-07-23T04:01:04;100797.50;;;25.24;68.76
54546;BME280;40444;45.184;9.850;2022-07-23T04:03:33;100795.34;;;25.26;68.66
54546;BME280;40444;45.184;9.850;2022-07-23T04:06:01;100792.59;;;25.26;68.10
54546;BME280;40444;45.184;9.850;2022-07-23T04:08:31;100792.69;;;25.19;67.69
54546;BME280;40444;45.184;9.850;2022-07-23T04:11:01;100798.78;;;25.21;67.17
54546;BME280;40444;45.184;9.850;2022-07-23T04:13:29;100796.03;;;25.21;67.39
54546;BME280;40444;45.184;9.850;2022-07-23T04:15:58;100800.28;;;25.17;67.71
54546;BME280;40444;45.184;9.850;2022-07-23T04:18:28;100798.47;;;25.11;68.36
54546;BME280;40444;45.184;9.850;2022-07-23T04:21:12;100805.41;;;25.13;68.26
54546;BME280;40444;45.184;9.850;2022-07-23T04:23:41;100808.38;;;25.12;68.27
54546;BME280;40444;45.184;9.850;2022-07-23T04:26:12;100805.69;;;25.05;68.74
54546;BME280;40444;45.184;9.850;2022-07-23T04:28:46;100806.09;;;25.09;68.95
54546;BME280;40444;45.184;9.850;2022-07-23T04:31:16;100810.09;;;25.06;68.99
54546;BME280;40444;45.184;9.850;2022-07-23T04:33:45;100812.63;;;25.08;69.02
54546;BME280;40444;45.184;9.850;2022-07-23T04:36:14;100809.22;;;25.12;69.38
54546;BME280;40444;45.184;9.850;2022-07-23T04:38:43;100798.88;;;25.14;69.58
54546;BME280;40444;45.184;9.850;2022-07-23T04:41:17;100797.56;;;25.17;69.77
54546;BME280;40444;45.184;9.850;2022-07-23T04:43:46;100786.13;;;25.20;69.39
54546;BME280;40444;45.184;9.850;2022-07-23T04:46:15;100787.34;;;25.24;69.98
54546;BME280;40444;45.184;9.850;2022-07-23T04:48:48;100780.56;;;25.27;69.68
54546;BME280;40444;45.184;9.850;2022-07-23T04:51:17;100783.09;;;25.28;69.10
54546;BME280;40444;45.184;9.850;2022-07-23T04:53:46;100785.97;;;25.33;68.98
54546;BME280;40444;45.184;9.850;2022-07-23T04:56:15;100790.16;;;25.36;69.90
54546;BME280;40444;45.184;9.850;2022-07-23T04:58:44;100792.69;;;25.37;70.40
54546;BME280;40444;45.184;9.850;2022-07-23T05:01:13;100790.31;;;25.41;70.72
54546;BME280;40444;45.184;9.850;2022-07-23T05:03:42;100783.91;;;25.47;71.16
54546;BME280;40444;45.184;9.850;2022-07-23T05:06:11;100782.75;;;25.55;71.67
54546;BME280;40444;45.184;9.850;2022-07-23T05:08:39;100777.66;;;25.58;71.83
54546;BME280;40444;45.184;9.850;2022-07-23T21:38:41;100769.69;;;28.81;59.11
54546;BME280;40444;45.184;9.850;2022-07-23T21:41:09;100772.50;;;28.86;59.22
54546;BME280;40444;45.184;9.850;2022-07-23T21:43:38;100783.69;;;28.96;59.06
54546;BME280;40444;45.184;9.850;2022-07-23T21:46:07;100785.53;;;29.07;58.82
54546;BME280;40444;45.184;9.850;2022-07-23T21:48:36;100775.94;;;29.15;58.61
54546;BME280;40444;45.184;9.850;2022-07-23T21:51:07;100777.09;;;29.19;58.60
54546;BME280;40444;45.184;9.850;2022-07-23T21:53:35;100783.22;;;29.21;58.36
54546;BME280;40444;45.184;9.850;2022-07-23T21:56:04;100778.19;;;29.18;58.68
54546;BME280;40444;45.184;9.850;2022-07-23T21:58:33;100780.97;;;29.18;58.28
54546;BME280;40444;45.184;9.850;2022-07-23T22:01:01;100780.63;;;29.14;57.82
54546;BME280;40444;45.184;9.850;2022-07-23T22:03:30;100778.00;;;29.03;58.26
54546;BME280;40444;45.184;9.850;2022-07-23T22:05:58;100782.69;;;29.02;59.25
54546;BME280;40444;45.184;9.850;2022-07-23T22:08:27;100784.03;;;29.00;59.21
54546;BME280;40444;45.184;9.850;2022-07-23T22:10:56;100783.75;;;29.01;58.67
54546;BME280;40444;45.184;9.850;2022-07-23T22:13:25;100789.53;;;29.00;59.33
54546;BME280;40444;45.184;9.850;2022-07-23T22:15:53;100793.72;;;29.02;59.26
54546;BME280;40444;45.184;9.850;2022-07-23T22:18:22;100793.47;;;29.04;59.03
54546;BME280;40444;45.184;9.850;2022-07-23T22:20:51;100801.47;;;29.05;59.00
54546;BME280;40444;45.184;9.850;2022-07-23T22:23:24;100798.97;;;29.04;58.88
54546;BME280;40444;45.184;9.850;2022-07-23T22:25:52;100804.75;;;29.02;59.22
54546;BME280;40444;45.184;9.850;2022-07-23T22:28:20;100811.63;;;29.00;59.22
54546;BME280;40444;45.184;9.850;2022-07-23T22:30:48;100804.06;;;28.95;59.37
54546;BME280;40444;45.184;9.850;2022-07-23T22:33:18;100805.09;;;28.89;59.47
54546;BME280;40444;45.184;9.850;2022-07-23T22:35:46;100805.34;;;28.87;59.80
54546;BME280;40444;45.184;9.850;2022-07-23T22:38:15;100805.84;;;28.84;59.86
54546;BME280;40444;45.184;9.850;2022-07-23T22:40:44;100798.91;;;28.82;60.39
54546;BME280;40444;45.184;9.850;2022-07-23T22:43:12;100812.63;;;28.77;60.51
54546;BME280;40444;45.184;9.850;2022-07-23T22:45:40;100807.13;;;28.77;61.24
54546;BME280;40444;45.184;9.850;2022-07-23T22:48:09;100800.94;;;28.69;60.81
54546;BME280;40444;45.184;9.850;2022-07-23T22:50:38;100806.63;;;28.63;60.96
54546;BME280;40444;45.184;9.850;2022-07-23T22:53:07;100819.00;;;28.60;61.42
54546;BME280;40444;45.184;9.850;2022-07-23T22:55:35;100812.56;;;28.55;61.95
54546;BME280;40444;45.184;9.850;2022-07-23T22:58:04;100825.44;;;28.49;62.11
54546;BME280;40444;45.184;9.850;2022-07-23T23:00:33;100821.50;;;28.45;62.92
54546;BME280;40444;45.184;9.850;2022-07-23T23:03:04;100813.91;;;28.35;62.79
54546;BME280;40444;45.184;9.850;2022-07-23T23:05:32;100822.03;;;28.30;63.21
54546;BME280;40444;45.184;9.850;2022-07-23T23:08:01;100827.25;;;28.27;63.18
54546;BME280;40444;45.184;9.850;2022-07-23T23:10:30;100826.56;;;28.19;62.94
54546;BME280;40444;45.184;9.850;2022-07-23T23:12:58;100834.88;;;28.08;63.47
54546;BME280;40444;45.184;9.850;2022-07-23T23:15:26;100831.53;;;28.06;63.70
54546;BME280;40444;45.184;9.850;2022-07-23T23:17:55;100838.63;;;28.02;63.42
54546;BME280;40444;45.184;9.850;2022-07-23T23:20:24;100836.13;;;28.00;64.22
54546;BME280;40444;45.184;9.850;2022-07-23T23:22:52;100834.44;;;27.99;64.28
54546;BME280;40444;45.184;9.850;2022-07-23T23:25:21;100833.28;;;27.95;64.52
54546;BME280;40444;45.184;9.850;2022-07-23T23:27:49;100836.13;;;28.00;64.57
54546;BME280;40444;45.184;9.850;2022-07-23T23:30:18;100838.53;;;27.96;64.71
54546;BME280;40444;45.184;9.850;2022-07-23T23:32:47;100835.28;;;28.00;64.77
54546;BME280;40444;45.184;9.850;2022-07-23T23:35:15;100832.94;;;27.91;65.06
54546;BME280;40444;45.184;9.850;2022-07-23T23:37:44;100832.84;;;27.86;65.72
54546;BME280;40444;45.184;9.850;2022-07-23T23:40:12;100833.81;;;27.80;65.75
54546;BME280;40444;45.184;9.850;2022-07-23T23:42:41;100837.91;;;27.78;66.01
54546;BME280;40444;45.184;9.850;2022-07-23T23:45:10;100834.91;;;27.79;66.08
54546;BME280;40444;45.184;9.850;2022-07-23T23:47:39;100830.84;;;27.70;66.43
54546;BME280;40444;45.184;9.850;2022-07-23T23:50:08;100834.19;;;27.72;65.98
54546;BME280;40444;45.184;9.850;2022-07-23T23:52:36;100838.00;;;27.71;65.74
54546;BME280;40444;45.184;9.850;2022-07-23T23:55:05;100835.06;;;27.61;66.55
54546;BME280;40444;45.184;9.850;2022-07-23T23:57:34;100837.44;;;27.57;66.79
